Time;durP1;ratioP1;P1;durP2;ratioP2;P2;SDS_P1;SDS_P2;PMS_P1;PMS_P2;Temp;Humidity;BMP_temperature;BMP_pressure;BME280_temperature;BME280_humidity;BME280_pressure;Samples;Min_cycle;Max_cycle;Signal;HPM_P1;HPM_P2
2024/03/13 00:00:15;;;;;;;17.73;10.90;;;;;;;;;;4971279;28;20172;-75
2024/03/13 00:02:41;;;;;;;21.00;11.27;;;;;;;;;;4970981;28;20185;-75
2024/03/13 00:05:10;;;;;;;17.97;10.60;;;;;;;;;;4972254;28;20185;-75
2024/03/13 00:07:35;;;;;;;17.23;10.60;;;;;;;;;;4963119;28;20352;-75
2024/03/13 00:10:01;;;;;;;21.13;11.17;;;;;;;;;;4966455;28;20282;-74
2024/03/13 00:12:28;;;;;;;19.07;11.10;;;;;;;;;;4968412;28;20545;-74
2024/03/13 00:14:54;;;;;;;15.97;9.63;;;;;;;;;;4972470;28;20204;-75
2024/03/13 00:17:20;;;;;;;16.70;10.73;;;;;;;;;;4972645;28;20249;-76
2024/03/13 00:19:46;;;;;;;19.57;10.60;;;;;;;;;;4954753;28;20691;-75
2024/03/13 00:22:13;;;;;;;18.77;10.73;;;;;;;;;;4972393;28;20223;-76
2024/03/13 00:24:39;;;;;;;19.80;11.10;;;;;;;;;;4972120;28;20184;-75
2024/03/13 00:27:04;;;;;;;21.87;12.40;;;;;;;;;;4965711;28;22168;-75
2024/03/13 00:29:29;;;;;;;19.37;11.43;;;;;;;;;;4956764;28;20283;-75
2024/03/13 00:31:54;;;;;;;19.20;11.50;;;;;;;;;;4953232;28;20169;-75
2024/03/13 00:34:22;;;;;;;21.97;11.70;;;;;;;;;;4968281;28;20195;-75
2024/03/13 00:36:48;;;;;;;21.20;12.80;;;;;;;;;;4965847;28;20204;-75
2024/03/13 00:39:13;;;;;;;22.20;12.13;;;;;;;;;;4962898;28;20191;-75
2024/03/13 00:41:39;;;;;;;21.27;11.93;;;;;;;;;;4937786;28;20212;-75
2024/03/13 00:44:05;;;;;;;30.47;11.90;;;;;;;;;;4965038;28;21725;-74
2024/03/13 00:46:30;;;;;;;24.87;12.80;;;;;;;;;;4956396;28;20172;-74
2024/03/13 00:48:55;;;;;;;34.73;14.23;;;;;;;;;;4971538;28;20259;-74
2024/03/13 00:51:21;;;;;;;30.67;13.30;;;;;;;;;;4973223;28;20625;-74
2024/03/13 00:53:46;;;;;;;32.00;14.38;;;;;;;;;;4964341;28;20188;-74
2024/03/13 00:56:11;;;;;;;35.27;14.53;;;;;;;;;;4974457;28;20219;-74
2024/03/13 00:58:37;;;;;;;39.88;13.90;;;;;;;;;;4973003;28;20200;-73
2024/03/13 01:01:02;;;;;;;36.90;14.70;;;;;;;;;;4956754;28;20624;-74
2024/03/13 01:03:28;;;;;;;39.80;15.40;;;;;;;;;;4956034;28;20186;-73
2024/03/13 01:05:55;;;;;;;43.50;17.23;;;;;;;;;;4973785;28;20561;-73
2024/03/13 01:08:21;;;;;;;54.72;15.93;;;;;;;;;;4956236;28;20694;-73
2024/03/13 01:10:48;;;;;;;44.92;14.38;;;;;;;;;;4954586;28;20208;-73
2024/03/13 01:13:13;;;;;;;62.90;18.58;;;;;;;;;;4962181;28;20204;-73
2024/03/13 01:15:38;;;;;;;57.10;16.58;;;;;;;;;;4955046;28;20663;-73
2024/03/13 01:18:04;;;;;;;53.67;15.60;;;;;;;;;;4968670;28;20205;-73
2024/03/13 01:20:29;;;;;;;42.75;15.70;;;;;;;;;;4966147;28;20184;-73
2024/03/13 01:22:56;;;;;;;44.15;15.90;;;;;;;;;;4966063;28;20271;-73
2024/03/13 01:25:21;;;;;;;53.83;15.20;;;;;;;;;;4972619;28;20188;-74
2024/03/13 01:27:47;;;;;;;38.33;14.50;;;;;;;;;;4971897;28;20351;-74
2024/03/13 01:30:14;;;;;;;40.73;14.53;;;;;;;;;;4967683;28;20638;-74
2024/03/13 01:32:39;;;;;;;37.80;14.45;;;;;;;;;;4962093;28;20180;-74
2024/03/13 01:35:06;;;;;;;32.20;14.32;;;;;;;;;;4953809;28;20666;-73
2024/03/13 01:40:19;;;;;;;32.17;12.33;;;;;;;;;;4967280;28;20192;-74
2024/03/13 01:56:47;;;;;;;30.77;12.02;;;;;;;;;;4971502;28;20191;-74
2024/03/13 01:59:23;;;;;;;32.28;12.82;;;;;;;;;;4954388;28;20188;-73
2024/03/13 02:04:34;;;;;;;27.25;13.07;;;;;;;;;;4959004;28;20188;-73
2024/03/13 02:07:00;;;;;;;35.63;13.48;;;;;;;;;;4963137;28;20212;-73
2024/03/13 02:09:25;;;;;;;31.98;12.73;;;;;;;;;;4965092;28;20387;-74
2024/03/13 02:11:50;;;;;;;34.95;13.05;;;;;;;;;;4951464;28;20274;-73
2024/03/13 02:14:15;;;;;;;32.08;13.73;;;;;;;;;;4969152;28;20180;-73
2024/03/13 02:16:41;;;;;;;29.70;12.52;;;;;;;;;;4967875;28;20176;-73
2024/03/13 02:19:07;;;;;;;35.92;13.25;;;;;;;;;;4967085;28;20216;-73
2024/03/13 02:21:32;;;;;;;32.17;13.63;;;;;;;;;;4953731;28;20177;-74
2024/03/13 02:23:58;;;;;;;25.17;12.13;;;;;;;;;;4970486;28;20246;-73
2024/03/13 02:26:24;;;;;;;29.50;13.57;;;;;;;;;;4949047;28;20185;-74
2024/03/13 02:28:51;;;;;;;34.20;12.45;;;;;;;;;;4966512;28;20199;-73
2024/03/13 02:31:16;;;;;;;30.67;11.38;;;;;;;;;;4964584;28;20663;-73
2024/03/13 02:33:43;;;;;;;26.45;10.38;;;;;;;;;;4972168;28;20263;-74
2024/03/13 02:36:08;;;;;;;24.08;10.07;;;;;;;;;;4970543;28;20184;-73
2024/03/13 02:38:33;;;;;;;27.08;10.05;;;;;;;;;;4964324;28;20683;-74
2024/03/13 02:40:59;;;;;;;21.55;9.30;;;;;;;;;;4962420;28;20792;-74
2024/03/13 02:43:24;;;;;;;22.35;9.82;;;;;;;;;;4971596;28;20651;-74
2024/03/13 02:45:50;;;;;;;21.65;9.50;;;;;;;;;;4971436;28;20727;-74
2024/03/13 02:48:16;;;;;;;24.73;10.10;;;;;;;;;;4962359;28;20239;-74
2024/03/13 02:50:42;;;;;;;24.95;10.48;;;;;;;;;;4966694;28;20239;-74
2024/03/13 02:53:10;;;;;;;28.67;10.38;;;;;;;;;;4953001;28;20298;-74
2024/03/13 02:55:39;;;;;;;27.63;9.85;;;;;;;;;;4967963;28;20287;-74
2024/03/13 02:58:04;;;;;;;23.58;9.88;;;;;;;;;;4962129;28;20197;-74
2024/03/13 03:00:29;;;;;;;19.88;8.98;;;;;;;;;;4964632;28;20214;-74
2024/03/13 03:02:55;;;;;;;24.92;9.40;;;;;;;;;;4965989;28;20263;-74
2024/03/13 03:05:21;;;;;;;20.00;9.95;;;;;;;;;;4970980;28;20187;-73
2024/03/13 03:07:46;;;;;;;23.93;9.57;;;;;;;;;;4944803;28;20630;-74
2024/03/13 03:10:11;;;;;;;29.55;11.68;;;;;;;;;;4962552;28;20210;-74
2024/03/13 03:12:36;;;;;;;27.73;10.35;;;;;;;;;;4952872;28;20188;-73
2024/03/13 03:15:02;;;;;;;29.23;10.90;;;;;;;;;;4964433;28;20180;-74
2024/03/13 03:17:27;;;;;;;29.60;11.27;;;;;;;;;;4951207;28;20195;-74
2024/03/13 03:19:52;;;;;;;26.85;11.77;;;;;;;;;;4965187;28;20184;-74
2024/03/13 03:22:18;;;;;;;29.85;11.50;;;;;;;;;;4964725;28;20235;-74
2024/03/13 03:24:44;;;;;;;35.97;11.65;;;;;;;;;;4966449;28;20188;-73
2024/03/13 03:27:09;;;;;;;29.88;11.50;;;;;;;;;;4962559;28;20400;-74
2024/03/13 03:29:36;;;;;;;32.55;12.73;;;;;;;;;;4964424;28;20681;-74
2024/03/13 03:32:01;;;;;;;38.45;11.52;;;;;;;;;;4962849;28;20177;-74
2024/03/13 03:34:26;;;;;;;25.15;10.95;;;;;;;;;;4952412;28;20179;-74
2024/03/13 03:36:52;;;;;;;25.05;10.55;;;;;;;;;;4952134;28;20212;-74
2024/03/13 03:39:18;;;;;;;26.13;10.50;;;;;;;;;;4964599;28;20204;-74
2024/03/13 03:41:43;;;;;;;25.75;10.50;;;;;;;;;;4968925;28;20186;-74
2024/03/13 03:44:11;;;;;;;24.85;10.07;;;;;;;;;;4948661;28;20183;-75
2024/03/13 03:46:37;;;;;;;26.67;10.82;;;;;;;;;;4952815;28;20859;-74
2024/03/13 03:49:02;;;;;;;27.30;10.80;;;;;;;;;;4965482;28;20192;-74
2024/03/13 03:51:27;;;;;;;25.05;11.32;;;;;;;;;;4962894;28;20204;-74
2024/03/13 03:53:52;;;;;;;25.52;10.80;;;;;;;;;;4968202;28;20176;-74
2024/03/13 03:56:17;;;;;;;25.52;9.60;;;;;;;;;;4970105;28;20236;-74
2024/03/13 03:58:43;;;;;;;21.45;10.07;;;;;;;;;;4960879;28;20197;-74
2024/03/13 04:01:08;;;;;;;26.50;11.27;;;;;;;;;;4948187;28;20185;-74
2024/03/13 04:03:34;;;;;;;30.38;11.80;;;;;;;;;;4964405;28;20177;-74
2024/03/13 04:06:00;;;;;;;27.07;11.47;;;;;;;;;;4967212;28;20672;-74
2024/03/13 04:08:25;;;;;;;32.40;11.98;;;;;;;;;;4955790;28;20480;-74
2024/03/13 04:10:50;;;;;;;24.30;11.55;;;;;;;;;;4971443;28;20631;-74
2024/03/13 04:13:19;;;;;;;29.10;11.00;;;;;;;;;;4971937;28;20173;-74
2024/03/13 04:15:46;;;;;;;28.65;10.43;;;;;;;;;;4955464;28;20641;-74
2024/03/13 04:18:12;;;;;;;25.50;10.40;;;;;;;;;;4951398;28;20201;-74
2024/03/13 04:20:38;;;;;;;24.70;12.93;;;;;;;;;;4968160;28;20243;-74
2024/03/13 04:23:05;;;;;;;26.15;9.38;;;;;;;;;;4959380;28;20250;-74
2024/03/13 04:25:32;;;;;;;29.48;11.10;;;;;;;;;;4971782;28;20268;-74
2024/03/13 04:27:57;;;;;;;25.58;11.10;;;;;;;;;;4971894;28;20212;-74
2024/03/13 04:30:23;;;;;;;22.90;11.07;;;;;;;;;;4949868;28;20288;-75
2024/03/13 04:32:49;;;;;;;30.70;11.35;;;;;;;;;;4956133;28;20526;-74
2024/03/13 04:35:14;;;;;;;27.80;11.30;;;;;;;;;;4971833;28;20579;-74
2024/03/13 04:37:39;;;;;;;30.38;11.50;;;;;;;;;;4970503;28;20212;-74
2024/03/13 04:40:07;;;;;;;36.15;12.13;;;;;;;;;;4964500;28;20195;-74
2024/03/13 04:42:33;;;;;;;31.40;10.40;;;;;;;;;;4968285;28;20614;-74
2024/03/13 04:44:59;;;;;;;29.65;11.75;;;;;;;;;;4968654;28;20180;-74
2024/03/13 04:47:25;;;;;;;24.50;10.50;;;;;;;;;;4955006;28;20207;-74
2024/03/13 04:49:50;;;;;;;27.13;10.63;;;;;;;;;;4966817;28;20204;-74
2024/03/13 04:52:15;;;;;;;29.80;9.73;;;;;;;;;;4964821;28;20173;-74
2024/03/13 04:54:40;;;;;;;25.70;10.23;;;;;;;;;;4972863;28;20191;-74
2024/03/13 04:57:05;;;;;;;33.47;10.20;;;;;;;;;;4970196;28;20189;-74
2024/03/13 04:59:31;;;;;;;21.55;9.93;;;;;;;;;;4949498;28;20694;-75
2024/03/13 05:01:56;;;;;;;26.70;9.48;;;;;;;;;;4970390;28;20192;-74
2024/03/13 05:04:21;;;;;;;22.98;9.43;;;;;;;;;;4956395;28;20555;-74
2024/03/13 05:06:47;;;;;;;25.23;9.77;;;;;;;;;;4970641;28;20219;-74
2024/03/13 05:09:12;;;;;;;19.73;8.73;;;;;;;;;;4970143;28;20188;-75
2024/03/13 05:11:37;;;;;;;26.27;9.32;;;;;;;;;;4968314;28;20180;-74
2024/03/13 05:14:03;;;;;;;29.00;9.45;;;;;;;;;;4966379;28;20180;-75
2024/03/13 05:16:28;;;;;;;20.52;8.82;;;;;;;;;;4968081;28;20184;-75
2024/03/13 05:18:53;;;;;;;19.00;8.00;;;;;;;;;;4951708;28;20656;-75
2024/03/13 05:21:18;;;;;;;21.92;8.70;;;;;;;;;;4969817;28;20371;-74
2024/03/13 05:23:43;;;;;;;21.65;7.05;;;;;;;;;;4969560;28;20184;-74
2024/03/13 05:26:09;;;;;;;15.60;7.72;;;;;;;;;;4968317;28;20181;-74
2024/03/13 05:28:34;;;;;;;14.93;6.65;;;;;;;;;;4964699;28;20200;-74
2024/03/13 05:30:59;;;;;;;19.27;7.25;;;;;;;;;;4965319;28;20291;-74
2024/03/13 05:33:24;;;;;;;13.07;6.47;;;;;;;;;;4954854;28;20200;-74
2024/03/13 05:35:50;;;;;;;15.23;6.45;;;;;;;;;;4961783;28;20185;-74
2024/03/13 05:38:16;;;;;;;14.00;6.88;;;;;;;;;;4968494;28;20256;-75
2024/03/13 05:40:42;;;;;;;18.88;6.40;;;;;;;;;;4966665;28;20196;-74
2024/03/13 05:43:07;;;;;;;21.33;7.00;;;;;;;;;;4971034;28;20197;-74
2024/03/13 05:45:32;;;;;;;26.80;6.78;;;;;;;;;;4970717;28;20187;-74
2024/03/13 05:47:57;;;;;;;23.40;6.68;;;;;;;;;;4963676;28;20205;-74
2024/03/13 05:50:23;;;;;;;15.20;7.00;;;;;;;;;;4952436;28;20204;-75
2024/03/13 05:52:48;;;;;;;16.80;6.35;;;;;;;;;;4966647;28;20606;-74
2024/03/13 05:55:14;;;;;;;20.42;6.38;;;;;;;;;;4960579;28;20585;-74
2024/03/13 05:57:40;;;;;;;21.52;7.07;;;;;;;;;;4952946;28;20716;-74
2024/03/13 06:00:17;;;;;;;18.35;6.82;;;;;;;;;;4966758;28;20180;-74
2024/03/13 06:02:43;;;;;;;18.40;6.88;;;;;;;;;;4969662;28;20187;-74
2024/03/13 06:05:16;;;;;;;25.97;6.47;;;;;;;;;;4959884;28;20197;-74
2024/03/13 06:07:42;;;;;;;16.60;6.57;;;;;;;;;;4966295;28;20763;-74
2024/03/13 06:10:10;;;;;;;26.00;6.95;;;;;;;;;;4969415;28;20287;-74
2024/03/13 06:12:38;;;;;;;17.65;6.20;;;;;;;;;;4967698;28;20212;-74
2024/03/13 06:15:07;;;;;;;27.75;8.38;;;;;;;;;;4947843;28;20656;-74
2024/03/13 06:17:33;;;;;;;21.00;6.45;;;;;;;;;;4952006;28;20676;-74
2024/03/13 06:19:59;;;;;;;21.58;7.15;;;;;;;;;;4965769;28;20195;-74
2024/03/13 06:22:24;;;;;;;33.05;8.55;;;;;;;;;;4970792;28;20180;-74
2024/03/13 06:24:49;;;;;;;29.60;8.02;;;;;;;;;;4952013;28;20187;-74
2024/03/13 06:27:15;;;;;;;19.25;7.60;;;;;;;;;;4951504;28;20612;-74
2024/03/13 06:29:57;;;;;;;18.33;7.90;;;;;;;;;;4966988;28;20207;-74
2024/03/13 06:32:22;;;;;;;16.10;5.60;;;;;;;;;;4958838;28;20231;-74
2024/03/13 06:34:47;;;;;;;16.15;6.28;;;;;;;;;;4967533;28;20188;-77
2024/03/13 06:37:14;;;;;;;20.17;7.20;;;;;;;;;;4968205;28;20266;-74
2024/03/13 06:39:41;;;;;;;26.23;7.07;;;;;;;;;;4965410;28;20760;-74
2024/03/13 06:42:06;;;;;;;25.52;7.03;;;;;;;;;;4968780;28;20191;-74
2024/03/13 06:44:31;;;;;;;23.30;7.50;;;;;;;;;;4965947;28;20176;-73
2024/03/13 06:46:56;;;;;;;17.75;5.97;;;;;;;;;;4964757;28;20580;-73
2024/03/13 06:49:22;;;;;;;17.38;6.40;;;;;;;;;;4953815;28;20219;-73
2024/03/13 06:51:47;;;;;;;16.30;7.15;;;;;;;;;;4960642;28;20200;-73
2024/03/13 06:54:12;;;;;;;21.98;7.18;;;;;;;;;;4968525;28;20185;-73
2024/03/13 06:56:37;;;;;;;23.83;6.60;;;;;;;;;;4963656;28;20235;-74
2024/03/13 06:59:03;;;;;;;20.52;6.75;;;;;;;;;;4964272;28;20293;-74
2024/03/13 07:01:29;;;;;;;20.20;6.97;;;;;;;;;;4959590;28;20211;-73
2024/03/13 07:03:54;;;;;;;18.48;6.18;;;;;;;;;;4963967;28;20247;-73
2024/03/13 07:06:20;;;;;;;18.17;6.47;;;;;;;;;;4973015;28;20184;-73
2024/03/13 07:08:45;;;;;;;18.23;6.43;;;;;;;;;;4965731;28;20299;-73
2024/03/13 07:11:13;;;;;;;26.60;7.63;;;;;;;;;;4969099;28;20211;-73
2024/03/13 07:13:38;;;;;;;23.38;7.60;;;;;;;;;;4970119;28;20212;-74
2024/03/13 07:16:03;;;;;;;17.80;6.95;;;;;;;;;;4942122;28;20227;-74
2024/03/13 07:18:30;;;;;;;19.27;7.68;;;;;;;;;;4947291;28;20251;-73
2024/03/13 07:20:56;;;;;;;21.98;6.90;;;;;;;;;;4966017;28;20675;-74
2024/03/13 07:23:21;;;;;;;21.23;7.45;;;;;;;;;;4968296;28;20215;-73
2024/03/13 07:25:47;;;;;;;18.50;7.43;;;;;;;;;;4950313;28;20322;-74
2024/03/13 07:28:12;;;;;;;20.17;6.53;;;;;;;;;;4949038;28;20211;-74
2024/03/13 07:30:38;;;;;;;14.50;7.47;;;;;;;;;;4966093;28;20676;-74
2024/03/13 07:33:08;;;;;;;20.30;7.25;;;;;;;;;;4967945;28;20177;-74
2024/03/13 07:35:33;;;;;;;16.88;6.82;;;;;;;;;;4955945;28;20235;-73
2024/03/13 07:37:58;;;;;;;22.60;7.70;;;;;;;;;;4955380;28;20219;-73
2024/03/13 07:40:24;;;;;;;23.00;9.45;;;;;;;;;;4964883;28;20551;-73
2024/03/13 07:42:49;;;;;;;30.17;8.98;;;;;;;;;;4951071;28;20181;-73
2024/03/13 07:45:16;;;;;;;23.20;8.48;;;;;;;;;;4969312;28;20805;-73
2024/03/13 07:47:41;;;;;;;20.38;9.30;;;;;;;;;;4966316;28;20212;-73
2024/03/13 07:50:08;;;;;;;22.25;9.35;;;;;;;;;;4973086;28;20258;-73
2024/03/13 07:52:34;;;;;;;26.23;8.73;;;;;;;;;;4955356;28;20203;-73
2024/03/13 07:54:59;;;;;;;22.85;9.45;;;;;;;;;;4971257;28;20531;-73
2024/03/13 07:57:25;;;;;;;21.15;9.85;;;;;;;;;;4972288;28;20200;-73
2024/03/13 07:59:51;;;;;;;21.88;10.07;;;;;;;;;;4971438;28;20184;-73
2024/03/13 08:02:16;;;;;;;27.90;10.65;;;;;;;;;;4972549;28;20188;-73
2024/03/13 08:04:42;;;;;;;24.23;11.77;;;;;;;;;;4953501;28;20581;-74
2024/03/13 08:07:07;;;;;;;24.95;10.57;;;;;;;;;;4968690;28;20196;-73
2024/03/13 08:09:32;;;;;;;23.50;11.15;;;;;;;;;;4969698;28;20282;-72
2024/03/13 08:11:58;;;;;;;27.77;11.63;;;;;;;;;;4974479;28;20185;-73
2024/03/13 08:14:23;;;;;;;23.45;10.77;;;;;;;;;;4971469;28;20184;-72
2024/03/13 08:16:48;;;;;;;24.67;11.38;;;;;;;;;;4956601;28;20633;-73
2024/03/13 08:19:13;;;;;;;30.38;12.20;;;;;;;;;;4970668;28;20180;-72
2024/03/13 08:21:39;;;;;;;32.45;11.68;;;;;;;;;;4973545;28;20199;-73
2024/03/13 08:24:04;;;;;;;24.58;11.82;;;;;;;;;;4972284;28;20719;-73
2024/03/13 08:26:30;;;;;;;27.13;11.98;;;;;;;;;;4972826;28;20173;-72
2024/03/13 08:28:56;;;;;;;26.58;11.43;;;;;;;;;;4952142;28;20172;-73
2024/03/13 08:31:22;;;;;;;23.35;10.05;;;;;;;;;;4960931;28;20244;-72
2024/03/13 08:33:48;;;;;;;26.83;10.65;;;;;;;;;;4952442;28;20193;-72
2024/03/13 08:36:13;;;;;;;25.98;11.63;;;;;;;;;;4944933;28;20188;-73
2024/03/13 08:38:38;;;;;;;23.92;10.35;;;;;;;;;;4964522;28;20205;-73
2024/03/13 08:41:04;;;;;;;22.17;11.07;;;;;;;;;;4969052;28;20259;-72
2024/03/13 08:43:29;;;;;;;24.73;10.65;;;;;;;;;;4962486;28;20189;-72
2024/03/13 08:45:55;;;;;;;22.30;7.88;;;;;;;;;;4969211;28;20192;-73
2024/03/13 08:48:20;;;;;;;19.92;8.35;;;;;;;;;;4964496;28;20559;-72
2024/03/13 08:50:45;;;;;;;30.42;8.65;;;;;;;;;;4961861;28;20675;-73
2024/03/13 08:53:14;;;;;;;19.73;9.32;;;;;;;;;;4960828;28;20180;-73
2024/03/13 08:55:39;;;;;;;15.20;8.35;;;;;;;;;;4954065;28;20180;-73
2024/03/13 08:58:05;;;;;;;19.92;8.23;;;;;;;;;;4968449;28;20582;-73
2024/03/13 09:00:30;;;;;;;17.90;7.95;;;;;;;;;;4968863;28;20204;-73
2024/03/13 09:03:05;;;;;;;18.20;8.18;;;;;;;;;;4965687;28;21052;-73
2024/03/13 09:05:32;;;;;;;13.55;6.57;;;;;;;;;;4948878;28;20188;-73
2024/03/13 09:07:57;;;;;;;17.05;6.68;;;;;;;;;;4953317;28;20263;-73
2024/03/13 09:10:22;;;;;;;16.65;6.32;;;;;;;;;;4969588;28;20200;-73
2024/03/13 09:12:47;;;;;;;10.98;5.63;;;;;;;;;;4970765;28;20255;-73
2024/03/13 09:15:13;;;;;;;11.02;5.50;;;;;;;;;;4952945;28;20184;-74
2024/03/13 09:17:39;;;;;;;10.38;5.30;;;;;;;;;;4953353;28;20734;-73
2024/03/13 09:20:04;;;;;;;10.00;4.90;;;;;;;;;;4965601;28;20187;-74
2024/03/13 09:22:29;;;;;;;11.23;5.10;;;;;;;;;;4962260;28;20189;-73
2024/03/13 09:24:54;;;;;;;10.77;4.53;;;;;;;;;;4970175;28;20212;-74
2024/03/13 09:27:20;;;;;;;11.15;4.20;;;;;;;;;;4964354;28;20200;-74
2024/03/13 09:29:45;;;;;;;11.00;4.63;;;;;;;;;;4962147;28;20292;-73
2024/03/13 09:32:10;;;;;;;10.35;5.60;;;;;;;;;;4962605;28;20624;-73
2024/03/13 09:34:36;;;;;;;13.77;5.45;;;;;;;;;;4965169;28;20263;-73
2024/03/13 09:37:04;;;;;;;12.90;5.43;;;;;;;;;;4962533;28;20200;-74
2024/03/13 09:39:29;;;;;;;9.98;4.63;;;;;;;;;;4962272;28;20177;-73
2024/03/13 09:41:57;;;;;;;7.15;4.72;;;;;;;;;;4962309;28;20176;-73
2024/03/13 09:44:22;;;;;;;7.88;4.00;;;;;;;;;;4959347;28;20188;-73
2024/03/13 09:46:49;;;;;;;10.52;4.93;;;;;;;;;;4966181;28;20216;-73
2024/03/13 09:49:14;;;;;;;10.32;5.13;;;;;;;;;;4950652;28;20537;-73
2024/03/13 09:51:43;;;;;;;14.60;5.28;;;;;;;;;;4951048;28;20176;-73
2024/03/13 09:54:10;;;;;;;9.30;3.92;;;;;;;;;;4952185;28;20203;-73
2024/03/13 09:56:35;;;;;;;11.18;4.05;;;;;;;;;;4964106;28;20185;-73
2024/03/13 09:59:01;;;;;;;11.70;4.70;;;;;;;;;;4964815;28;20181;-73
2024/03/13 10:01:26;;;;;;;15.80;4.60;;;;;;;;;;4965078;28;20324;-74
2024/03/13 10:03:56;;;;;;;16.92;4.18;;;;;;;;;;4946787;28;20686;-73
2024/03/13 10:06:23;;;;;;;11.40;4.15;;;;;;;;;;4964183;28;20312;-73
2024/03/13 10:08:49;;;;;;;14.50;4.47;;;;;;;;;;4954464;28;20292;-73
2024/03/13 10:11:14;;;;;;;10.60;4.57;;;;;;;;;;4947984;28;20694;-74
2024/03/13 10:13:40;;;;;;;14.20;5.03;;;;;;;;;;4952015;28;20222;-73
2024/03/13 10:16:06;;;;;;;15.80;4.85;;;;;;;;;;4951869;28;20176;-73
2024/03/13 10:18:33;;;;;;;11.85;5.28;;;;;;;;;;4948543;28;20200;-73
2024/03/13 10:21:08;;;;;;;14.82;5.30;;;;;;;;;;4950853;28;20189;-73
2024/03/13 10:23:34;;;;;;;13.98;4.88;;;;;;;;;;4952710;28;20203;-72
2024/03/13 10:25:59;;;;;;;10.77;3.90;;;;;;;;;;4966121;28;20186;-73
2024/03/13 10:28:25;;;;;;;11.90;3.85;;;;;;;;;;4957320;28;20205;-73
2024/03/13 10:30:53;;;;;;;10.90;4.03;;;;;;;;;;4951109;28;20192;-73
2024/03/13 10:33:19;;;;;;;16.02;5.63;;;;;;;;;;4965113;28;20262;-73
2024/03/13 10:35:44;;;;;;;14.90;4.28;;;;;;;;;;4960414;28;20221;-73
2024/03/13 10:38:14;;;;;;;7.13;4.22;;;;;;;;;;4962855;28;20219;-74
2024/03/13 10:40:42;;;;;;;11.50;3.72;;;;;;;;;;4963353;28;20184;-73
2024/03/13 10:43:11;;;;;;;8.88;3.22;;;;;;;;;;4964795;28;20188;-74
2024/03/13 10:45:39;;;;;;;8.63;3.33;;;;;;;;;;4951143;28;20194;-73
2024/03/13 10:48:10;;;;;;;10.38;4.15;;;;;;;;;;4962064;28;20204;-73
2024/03/13 10:50:35;;;;;;;5.22;2.75;;;;;;;;;;4960531;28;20358;-74
2024/03/13 10:53:00;;;;;;;13.43;3.75;;;;;;;;;;4966204;28;20211;-74
2024/03/13 10:55:28;;;;;;;9.75;3.53;;;;;;;;;;4961297;28;20221;-73
2024/03/13 10:57:54;;;;;;;14.02;3.30;;;;;;;;;;4952590;28;20200;-73
2024/03/13 11:00:21;;;;;;;10.70;3.03;;;;;;;;;;4968296;28;20542;-74
2024/03/13 11:02:46;;;;;;;7.28;2.60;;;;;;;;;;4968901;28;20184;-74
2024/03/13 11:05:11;;;;;;;5.25;2.20;;;;;;;;;;4970857;28;20188;-73
2024/03/13 11:07:37;;;;;;;9.20;2.75;;;;;;;;;;4970987;28;20235;-73
2024/03/13 11:10:02;;;;;;;8.82;3.25;;;;;;;;;;4953950;28;20196;-73
2024/03/13 11:12:31;;;;;;;9.13;2.05;;;;;;;;;;4967841;28;20199;-71
2024/03/13 11:15:00;;;;;;;6.40;2.33;;;;;;;;;;4969670;28;20183;-73
2024/03/13 11:17:27;;;;;;;16.08;2.75;;;;;;;;;;4970399;28;20197;-73
2024/03/13 11:20:01;;;;;;;7.25;2.35;;;;;;;;;;4971974;28;20660;-73
2024/03/13 11:22:28;;;;;;;7.85;2.63;;;;;;;;;;4965854;28;20192;-73
2024/03/13 11:24:53;;;;;;;6.20;2.83;;;;;;;;;;4969346;28;20234;-72
2024/03/13 11:27:20;;;;;;;11.02;3.33;;;;;;;;;;4967480;28;20629;-73
2024/03/13 11:29:49;;;;;;;11.25;2.40;;;;;;;;;;4970796;28;20311;-73
2024/03/13 11:32:14;;;;;;;8.70;2.10;;;;;;;;;;4970515;28;20172;-72
2024/03/13 11:34:40;;;;;;;4.20;1.50;;;;;;;;;;4970862;28;20219;-72
2024/03/13 11:37:09;;;;;;;7.00;1.98;;;;;;;;;;4967177;28;20216;-72
2024/03/13 11:39:34;;;;;;;3.47;1.80;;;;;;;;;;4965185;28;20177;-72
2024/03/13 11:42:06;;;;;;;4.75;1.80;;;;;;;;;;4969149;28;20684;-72
2024/03/13 11:44:35;;;;;;;6.22;1.67;;;;;;;;;;4971427;28;20185;-73
2024/03/13 11:47:00;;;;;;;4.32;1.60;;;;;;;;;;4967217;28;20200;-72
2024/03/13 11:49:25;;;;;;;4.18;1.55;;;;;;;;;;4951816;28;20680;-73
2024/03/13 11:52:03;;;;;;;6.68;2.17;;;;;;;;;;4955850;28;20411;-73
2024/03/13 11:54:30;;;;;;;6.00;2.05;;;;;;;;;;4970650;28;20177;-73
2024/03/13 11:57:03;;;;;;;6.78;2.38;;;;;;;;;;4956477;28;20568;-73
2024/03/13 11:59:41;;;;;;;6.35;2.20;;;;;;;;;;4968681;28;20185;-72
2024/03/13 12:02:26;;;;;;;6.03;2.05;;;;;;;;;;4972206;28;20184;-72
2024/03/13 12:04:51;;;;;;;7.78;1.90;;;;;;;;;;4974683;28;20180;-73
2024/03/13 12:07:19;;;;;;;6.22;1.77;;;;;;;;;;4959475;28;20676;-72
2024/03/13 12:09:46;;;;;;;4.10;2.15;;;;;;;;;;4975810;28;20200;-73
2024/03/13 12:12:13;;;;;;;3.28;1.83;;;;;;;;;;4975433;28;20186;-72
2024/03/13 12:14:38;;;;;;;5.65;2.22;;;;;;;;;;4974339;28;20212;-73
2024/03/13 12:17:05;;;;;;;13.23;1.90;;;;;;;;;;4970700;28;20244;-72
2024/03/13 12:19:30;;;;;;;4.68;1.67;;;;;;;;;;4979618;28;20211;-73
2024/03/13 12:21:57;;;;;;;3.97;2.25;;;;;;;;;;4974041;28;20184;-72
2024/03/13 12:24:22;;;;;;;6.15;1.75;;;;;;;;;;4980443;28;20181;-72
2024/03/13 12:26:51;;;;;;;5.43;2.00;;;;;;;;;;4958563;28;20239;-72
2024/03/13 12:29:16;;;;;;;5.50;1.98;;;;;;;;;;4970375;28;20276;-72
2024/03/13 12:31:42;;;;;;;5.65;1.92;;;;;;;;;;4973788;28;20713;-72
2024/03/13 12:34:10;;;;;;;4.15;1.50;;;;;;;;;;4971404;28;20246;-72
2024/03/13 12:36:43;;;;;;;5.55;1.70;;;;;;;;;;4971320;28;20180;-72
2024/03/13 12:39:10;;;;;;;3.63;1.55;;;;;;;;;;4971416;28;20284;-72
2024/03/13 12:41:35;;;;;;;2.10;1.30;;;;;;;;;;4973587;28;20172;-73
2024/03/13 12:44:03;;;;;;;9.43;1.88;;;;;;;;;;4970897;28;20199;-73
2024/03/13 12:46:28;;;;;;;2.65;1.45;;;;;;;;;;4968121;28;20699;-73
2024/03/13 12:48:54;;;;;;;5.32;1.85;;;;;;;;;;4962404;28;20189;-73
2024/03/13 12:51:20;;;;;;;2.30;2.10;;;;;;;;;;4963805;28;20563;-73
2024/03/13 12:53:45;;;;;;;3.50;1.83;;;;;;;;;;4965119;28;20189;-73
2024/03/13 12:56:11;;;;;;;3.45;1.30;;;;;;;;;;4969310;28;20242;-72
2024/03/13 12:58:36;;;;;;;2.20;1.30;;;;;;;;;;4946871;28;20212;-73
2024/03/13 13:01:01;;;;;;;7.82;1.98;;;;;;;;;;4967099;28;20188;-73
2024/03/13 13:03:27;;;;;;;3.00;1.60;;;;;;;;;;4964555;28;20406;-73
2024/03/13 13:05:52;;;;;;;3.80;1.65;;;;;;;;;;4963964;28;20177;-71
2024/03/13 13:08:21;;;;;;;2.75;1.90;;;;;;;;;;4965140;28;20283;-72
2024/03/13 13:10:49;;;;;;;4.60;2.45;;;;;;;;;;4963228;28;20211;-72
2024/03/13 13:13:15;;;;;;;5.30;3.13;;;;;;;;;;4955714;28;20176;-73
2024/03/13 13:15:41;;;;;;;4.40;3.33;;;;;;;;;;4968025;28;20181;-72
2024/03/13 13:18:06;;;;;;;6.75;4.18;;;;;;;;;;4970209;28;20199;-72
2024/03/13 13:20:33;;;;;;;8.60;4.68;;;;;;;;;;4972039;28;20256;-72
2024/03/13 13:22:58;;;;;;;11.05;4.80;;;;;;;;;;4968645;28;20184;-72
2024/03/13 13:25:26;;;;;;;7.70;4.20;;;;;;;;;;4969332;28;20260;-72
2024/03/13 13:27:54;;;;;;;7.55;5.13;;;;;;;;;;4966953;28;20196;-72
2024/03/13 13:30:19;;;;;;;7.80;4.60;;;;;;;;;;4958923;28;20255;-72
2024/03/13 13:32:44;;;;;;;8.25;5.43;;;;;;;;;;4965319;28;20184;-73
2024/03/13 13:35:10;;;;;;;9.20;5.78;;;;;;;;;;4966030;28;20185;-72
2024/03/13 13:37:36;;;;;;;10.63;6.63;;;;;;;;;;4965469;28;20296;-73
2024/03/13 13:40:12;;;;;;;8.82;5.25;;;;;;;;;;4952617;28;20185;-73
2024/03/13 13:42:37;;;;;;;9.05;5.75;;;;;;;;;;4971031;28;20250;-73
2024/03/13 13:45:03;;;;;;;12.13;5.10;;;;;;;;;;4970598;28;20193;-73
2024/03/13 13:47:28;;;;;;;11.80;5.95;;;;;;;;;;4963540;28;20565;-73
2024/03/13 13:49:55;;;;;;;10.48;6.22;;;;;;;;;;4967257;28;20215;-72
2024/03/13 13:52:20;;;;;;;10.20;6.00;;;;;;;;;;4963806;28;20172;-73
2024/03/13 13:54:46;;;;;;;14.63;6.88;;;;;;;;;;4963756;28;20172;-73
2024/03/13 13:57:12;;;;;;;10.13;6.22;;;;;;;;;;4968788;28;20200;-73
2024/03/13 13:59:38;;;;;;;13.90;6.40;;;;;;;;;;4953493;28;20242;-73
2024/03/13 14:02:04;;;;;;;11.55;6.55;;;;;;;;;;4946725;28;20188;-72
2024/03/13 14:04:30;;;;;;;10.95;5.38;;;;;;;;;;4966537;28;20243;-73
2024/03/13 14:06:57;;;;;;;16.63;6.85;;;;;;;;;;4950818;28;20216;-73
2024/03/13 14:09:22;;;;;;;12.30;5.40;;;;;;;;;;4968123;28;20187;-73
2024/03/13 14:11:47;;;;;;;9.35;5.95;;;;;;;;;;4950397;28;20176;-73
2024/03/13 14:14:13;;;;;;;7.60;4.55;;;;;;;;;;4963361;28;20208;-73
2024/03/13 14:16:41;;;;;;;9.32;4.47;;;;;;;;;;4953245;28;20235;-73
2024/03/13 14:19:08;;;;;;;5.45;3.67;;;;;;;;;;4966068;28;20176;-73
2024/03/13 14:21:34;;;;;;;5.05;3.40;;;;;;;;;;4964614;28;20180;-73
2024/03/13 14:24:00;;;;;;;4.53;2.20;;;;;;;;;;4963365;28;20218;-73
2024/03/13 14:26:25;;;;;;;2.42;2.00;;;;;;;;;;4964426;28;20180;-73
2024/03/13 14:28:51;;;;;;;4.90;2.30;;;;;;;;;;4966249;28;20377;-73
2024/03/13 14:31:16;;;;;;;3.97;2.03;;;;;;;;;;4965066;28;20204;-73
2024/03/13 14:33:43;;;;;;;5.80;1.85;;;;;;;;;;4966265;28;20187;-72
2024/03/13 14:36:11;;;;;;;5.65;1.83;;;;;;;;;;4948728;28;20192;-73
2024/03/13 14:38:37;;;;;;;3.25;1.60;;;;;;;;;;4965064;28;20216;-74
2024/03/13 14:41:07;;;;;;;3.20;1.92;;;;;;;;;;4948833;28;20184;-74